sensor_id;sensor_type;location;lat;lon;timestamp;P1;durP1;ratioP1;P2;durP2;ratioP2
66264;SDS011;53055;44.648;21.148;2023-04-15T00:02:24;39.15;;;27.55;;
66264;SDS011;53055;44.648;21.148;2023-04-15T00:04:50;37.58;;;26.85;;
66264;SDS011;53055;44.648;21.148;2023-04-15T00:07:16;36.15;;;26.20;;
66264;SDS011;53055;44.648;21.148;2023-04-15T00:09:42;35.78;;;24.75;;
66264;SDS011;53055;44.648;21.148;2023-04-15T00:12:09;34.35;;;24.40;;
66264;SDS011;53055;44.648;21.148;2023-04-15T00:14:35;36.53;;;23.88;;
66264;SDS011;53055;44.648;21.148;2023-04-15T00:17:01;31.83;;;21.63;;
66264;SDS011;53055;44.648;21.148;2023-04-15T00:19:28;26.35;;;17.33;;
66264;SDS011;53055;44.648;21.148;2023-04-15T00:21:54;29.05;;;18.08;;
66264;SDS011;53055;44.648;21.148;2023-04-15T00:24:21;34.08;;;20.98;;
66264;SDS011;53055;44.648;21.148;2023-04-15T00:26:47;16.92;;;10.68;;
66264;SDS011;53055;44.648;21.148;2023-04-15T00:29:14;14.35;;;10.05;;
66264;SDS011;53055;44.648;21.148;2023-04-15T00:31:40;14.20;;;8.80;;
66264;SDS011;53055;44.648;21.148;2023-04-15T00:34:06;12.27;;;7.68;;
66264;SDS011;53055;44.648;21.148;2023-04-15T00:36:33;11.73;;;6.90;;
66264;SDS011;53055;44.648;21.148;2023-04-15T00:39:00;10.90;;;6.60;;
66264;SDS011;53055;44.648;21.148;2023-04-15T00:41:27;9.63;;;5.53;;
66264;SDS011;53055;44.648;21.148;2023-04-15T00:43:53;19.48;;;13.85;;
66264;SDS011;53055;44.648;21.148;2023-04-15T00:46:20;12.52;;;8.27;;
66264;SDS011;53055;44.648;21.148;2023-04-15T00:48:47;11.48;;;6.80;;
66264;SDS011;53055;44.648;21.148;2023-04-15T00:51:13;11.20;;;7.43;;
66264;SDS011;53055;44.648;21.148;2023-04-15T00:53:39;9.15;;;5.72;;
66264;SDS011;53055;44.648;21.148;2023-04-15T00:56:06;7.30;;;4.15;;
66264;SDS011;53055;44.648;21.148;2023-04-15T00:58:32;8.02;;;4.03;;
66264;SDS011;53055;44.648;21.148;2023-04-15T01:00:59;8.55;;;4.15;;
66264;SDS011;53055;44.648;21.148;2023-04-15T01:03:25;8.02;;;4.20;;
66264;SDS011;53055;44.648;21.148;2023-04-15T01:05:52;7.38;;;4.40;;
66264;SDS011;53055;44.648;21.148;2023-04-15T01:08:23;8.85;;;4.55;;
66264;SDS011;53055;44.648;21.148;2023-04-15T01:10:51;7.70;;;3.88;;
66264;SDS011;53055;44.648;21.148;2023-04-15T01:13:18;6.68;;;3.63;;
66264;SDS011;53055;44.648;21.148;2023-04-15T01:15:46;11.38;;;7.32;;
66264;SDS011;53055;44.648;21.148;2023-04-15T01:18:12;17.98;;;10.65;;
66264;SDS011;53055;44.648;21.148;2023-04-15T01:20:38;24.52;;;15.98;;
66264;SDS011;53055;44.648;21.148;2023-04-15T01:23:05;16.35;;;10.25;;
66264;SDS011;53055;44.648;21.148;2023-04-15T01:25:32;19.83;;;12.70;;
66264;SDS011;53055;44.648;21.148;2023-04-15T01:27:58;10.63;;;5.90;;
66264;SDS011;53055;44.648;21.148;2023-04-15T01:30:25;10.40;;;5.35;;
66264;SDS011;53055;44.648;21.148;2023-04-15T01:32:51;13.45;;;9.13;;
66264;SDS011;53055;44.648;21.148;2023-04-15T01:35:17;11.52;;;6.25;;
66264;SDS011;53055;44.648;21.148;2023-04-15T01:37:43;8.18;;;5.20;;
66264;SDS011;53055;44.648;21.148;2023-04-15T01:40:10;8.27;;;4.70;;
66264;SDS011;53055;44.648;21.148;2023-04-15T01:42:36;9.10;;;4.57;;
66264;SDS011;53055;44.648;21.148;2023-04-15T01:45:02;10.52;;;6.43;;
66264;SDS011;53055;44.648;21.148;2023-04-15T01:47:29;12.07;;;5.40;;
66264;SDS011;53055;44.648;21.148;2023-04-15T01:49:55;15.50;;;9.15;;
66264;SDS011;53055;44.648;21.148;2023-04-15T01:52:21;12.45;;;8.30;;
66264;SDS011;53055;44.648;21.148;2023-04-15T01:54:47;10.25;;;6.57;;
66264;SDS011;53055;44.648;21.148;2023-04-15T01:57:13;15.15;;;9.57;;
66264;SDS011;53055;44.648;21.148;2023-04-15T01:59:39;13.05;;;8.93;;
66264;SDS011;53055;44.648;21.148;2023-04-15T02:02:06;13.23;;;8.23;;
66264;SDS011;53055;44.648;21.148;2023-04-15T02:04:32;12.45;;;8.27;;
66264;SDS011;53055;44.648;21.148;2023-04-15T02:06:58;11.38;;;7.25;;
66264;SDS011;53055;44.648;21.148;2023-04-15T02:09:24;11.77;;;6.90;;
66264;SDS011;53055;44.648;21.148;2023-04-15T02:11:51;12.88;;;7.85;;
66264;SDS011;53055;44.648;21.148;2023-04-15T02:14:18;13.52;;;8.50;;
66264;SDS011;53055;44.648;21.148;2023-04-15T02:16:44;16.98;;;11.20;;
66264;SDS011;53055;44.648;21.148;2023-04-15T02:19:10;12.70;;;7.85;;
66264;SDS011;53055;44.648;21.148;2023-04-15T02:21:36;20.80;;;13.95;;
66264;SDS011;53055;44.648;21.148;2023-04-15T02:24:03;18.63;;;12.60;;
66264;SDS011;53055;44.648;21.148;2023-04-15T02:26:30;18.27;;;12.68;;
66264;SDS011;53055;44.648;21.148;2023-04-15T02:28:57;19.30;;;12.90;;
66264;SDS011;53055;44.648;21.148;2023-04-15T02:31:23;20.70;;;13.80;;
66264;SDS011;53055;44.648;21.148;2023-04-15T02:33:50;12.40;;;5.40;;
66264;SDS011;53055;44.648;21.148;2023-04-15T02:36:16;15.00;;;4.85;;
66264;SDS011;53055;44.648;21.148;2023-04-15T02:38:42;9.60;;;5.25;;
66264;SDS011;53055;44.648;21.148;2023-04-15T02:41:08;7.30;;;3.80;;
66264;SDS011;53055;44.648;21.148;2023-04-15T02:43:34;9.13;;;4.60;;
66264;SDS011;53055;44.648;21.148;2023-04-15T02:46:00;9.32;;;4.68;;
66264;SDS011;53055;44.648;21.148;2023-04-15T02:48:26;7.75;;;3.72;;
66264;SDS011;53055;44.648;21.148;2023-04-15T02:50:52;10.15;;;5.55;;
66264;SDS011;53055;44.648;21.148;2023-04-15T02:53:18;9.05;;;5.10;;
66264;SDS011;53055;44.648;21.148;2023-04-15T02:55:45;8.63;;;4.85;;
66264;SDS011;53055;44.648;21.148;2023-04-15T02:58:11;10.80;;;6.00;;
66264;SDS011;53055;44.648;21.148;2023-04-15T03:00:37;12.38;;;7.00;;
66264;SDS011;53055;44.648;21.148;2023-04-15T03:03:04;9.70;;;5.20;;
66264;SDS011;53055;44.648;21.148;2023-04-15T03:05:30;9.23;;;4.95;;
66264;SDS011;53055;44.648;21.148;2023-04-15T03:07:56;9.30;;;4.40;;
66264;SDS011;53055;44.648;21.148;2023-04-15T03:10:22;9.07;;;4.55;;
66264;SDS011;53055;44.648;21.148;2023-04-15T03:12:48;8.77;;;4.38;;
66264;SDS011;53055;44.648;21.148;2023-04-15T03:15:14;8.50;;;3.88;;
66264;SDS011;53055;44.648;21.148;2023-04-15T03:17:41;9.45;;;4.28;;
66264;SDS011;53055;44.648;21.148;2023-04-15T03:20:07;11.57;;;4.47;;
66264;SDS011;53055;44.648;21.148;2023-04-15T03:22:34;8.32;;;4.43;;
66264;SDS011;53055;44.648;21.148;2023-04-15T03:25:00;9.15;;;5.00;;
66264;SDS011;53055;44.648;21.148;2023-04-15T03:27:26;9.70;;;3.60;;
66264;SDS011;53055;44.648;21.148;2023-04-15T03:29:52;7.95;;;3.58;;
66264;SDS011;53055;44.648;21.148;2023-04-15T03:32:18;7.93;;;4.07;;
66264;SDS011;53055;44.648;21.148;2023-04-15T03:34:44;9.15;;;4.32;;
66264;SDS011;53055;44.648;21.148;2023-04-15T03:37:11;6.75;;;3.08;;
66264;SDS011;53055;44.648;21.148;2023-04-15T03:39:37;9.32;;;3.78;;
66264;SDS011;53055;44.648;21.148;2023-04-15T03:42:03;7.78;;;3.88;;
66264;SDS011;53055;44.648;21.148;2023-04-15T03:44:29;12.77;;;6.03;;
66264;SDS011;53055;44.648;21.148;2023-04-15T03:46:56;13.30;;;7.45;;
66264;SDS011;53055;44.648;21.148;2023-04-15T03:49:22;10.95;;;5.32;;
66264;SDS011;53055;44.648;21.148;2023-04-15T03:51:49;10.23;;;5.93;;
66264;SDS011;53055;44.648;21.148;2023-04-15T03:54:15;10.98;;;5.18;;
66264;SDS011;53055;44.648;21.148;2023-04-15T03:56:41;11.10;;;5.55;;
66264;SDS011;53055;44.648;21.148;2023-04-15T03:59:07;10.13;;;5.82;;
66264;SDS011;53055;44.648;21.148;2023-04-15T04:01:33;7.85;;;3.92;;
66264;SDS011;53055;44.648;21.148;2023-04-15T04:03:59;6.78;;;3.15;;
66264;SDS011;53055;44.648;21.148;2023-04-15T04:06:26;7.13;;;3.45;;
66264;SDS011;53055;44.648;21.148;2023-04-15T04:08:52;6.50;;;2.72;;
66264;SDS011;53055;44.648;21.148;2023-04-15T04:11:18;6.40;;;2.63;;
66264;SDS011;53055;44.648;21.148;2023-04-15T04:13:45;12.48;;;6.55;;
66264;SDS011;53055;44.648;21.148;2023-04-15T04:16:11;75.60;;;49.65;;
66264;SDS011;53055;44.648;21.148;2023-04-15T04:18:37;43.00;;;29.52;;
66264;SDS011;53055;44.648;21.148;2023-04-15T04:21:03;56.85;;;40.67;;
66264;SDS011;53055;44.648;21.148;2023-04-15T04:23:29;49.97;;;33.50;;
66264;SDS011;53055;44.648;21.148;2023-04-15T04:25:55;57.42;;;40.38;;
66264;SDS011;53055;44.648;21.148;2023-04-15T04:28:21;20.55;;;15.50;;
66264;SDS011;53055;44.648;21.148;2023-04-15T04:30:47;10.52;;;6.88;;
66264;SDS011;53055;44.648;21.148;2023-04-15T04:33:13;8.93;;;4.18;;
66264;SDS011;53055;44.648;21.148;2023-04-15T04:35:39;6.68;;;2.65;;
66264;SDS011;53055;44.648;21.148;2023-04-15T04:38:05;6.22;;;2.97;;
66264;SDS011;53055;44.648;21.148;2023-04-15T04:40:32;5.45;;;2.30;;
66264;SDS011;53055;44.648;21.148;2023-04-15T04:42:58;7.10;;;2.30;;
66264;SDS011;53055;44.648;21.148;2023-04-15T04:45:24;7.28;;;3.03;;
66264;SDS011;53055;44.648;21.148;2023-04-15T04:47:50;6.00;;;2.72;;
66264;SDS011;53055;44.648;21.148;2023-04-15T04:50:16;5.32;;;2.05;;
66264;SDS011;53055;44.648;21.148;2023-04-15T04:52:42;6.93;;;1.95;;
66264;SDS011;53055;44.648;21.148;2023-04-15T04:55:08;5.03;;;2.00;;
66264;SDS011;53055;44.648;21.148;2023-04-15T04:57:34;5.50;;;2.00;;
66264;SDS011;53055;44.648;21.148;2023-04-15T05:00:00;4.40;;;2.00;;
66264;SDS011;53055;44.648;21.148;2023-04-15T05:02:28;4.35;;;1.88;;
66264;SDS011;53055;44.648;21.148;2023-04-15T05:04:54;4.80;;;1.90;;
66264;SDS011;53055;44.648;21.148;2023-04-15T05:07:21;6.13;;;2.70;;
66264;SDS011;53055;44.648;21.148;2023-04-15T05:09:47;21.65;;;13.77;;
66264;SDS011;53055;44.648;21.148;2023-04-15T05:12:13;16.90;;;9.75;;
66264;SDS011;53055;44.648;21.148;2023-04-15T05:14:39;20.75;;;14.38;;
66264;SDS011;53055;44.648;21.148;2023-04-15T05:17:06;11.75;;;7.63;;
66264;SDS011;53055;44.648;21.148;2023-04-15T05:19:32;13.00;;;8.23;;
66264;SDS011;53055;44.648;21.148;2023-04-15T05:21:59;9.07;;;5.55;;
66264;SDS011;53055;44.648;21.148;2023-04-15T05:24:25;6.82;;;3.08;;
66264;SDS011;53055;44.648;21.148;2023-04-15T05:26:51;8.48;;;3.80;;
66264;SDS011;53055;44.648;21.148;2023-04-15T05:29:17;6.35;;;3.03;;
66264;SDS011;53055;44.648;21.148;2023-04-15T05:31:43;4.93;;;2.03;;
66264;SDS011;53055;44.648;21.148;2023-04-15T05:34:09;6.45;;;2.30;;
66264;SDS011;53055;44.648;21.148;2023-04-15T05:36:36;5.90;;;2.85;;
66264;SDS011;53055;44.648;21.148;2023-04-15T05:39:02;5.68;;;2.70;;
66264;SDS011;53055;44.648;21.148;2023-04-15T05:41:28;5.47;;;2.22;;
66264;SDS011;53055;44.648;21.148;2023-04-15T05:43:54;5.00;;;2.20;;
66264;SDS011;53055;44.648;21.148;2023-04-15T05:46:21;4.35;;;1.40;;
66264;SDS011;53055;44.648;21.148;2023-04-15T05:48:47;4.95;;;2.05;;
66264;SDS011;53055;44.648;21.148;2023-04-15T05:51:13;5.70;;;1.83;;
66264;SDS011;53055;44.648;21.148;2023-04-15T05:53:39;5.25;;;2.70;;
66264;SDS011;53055;44.648;21.148;2023-04-15T05:56:06;5.50;;;2.25;;
66264;SDS011;53055;44.648;21.148;2023-04-15T05:58:32;4.85;;;1.65;;
66264;SDS011;53055;44.648;21.148;2023-04-15T06:00:58;6.00;;;2.17;;
66264;SDS011;53055;44.648;21.148;2023-04-15T06:03:24;4.45;;;1.38;;
66264;SDS011;53055;44.648;21.148;2023-04-15T06:05:50;4.15;;;1.65;;
66264;SDS011;53055;44.648;21.148;2023-04-15T06:08:16;4.18;;;1.45;;
66264;SDS011;53055;44.648;21.148;2023-04-15T06:10:43;4.95;;;1.95;;
66264;SDS011;53055;44.648;21.148;2023-04-15T06:13:10;6.05;;;2.72;;
66264;SDS011;53055;44.648;21.148;2023-04-15T06:15:36;5.80;;;2.65;;
66264;SDS011;53055;44.648;21.148;2023-04-15T06:18:02;6.25;;;3.03;;
66264;SDS011;53055;44.648;21.148;2023-04-15T06:20:29;6.22;;;3.03;;
66264;SDS011;53055;44.648;21.148;2023-04-15T06:22:55;6.30;;;3.20;;
66264;SDS011;53055;44.648;21.148;2023-04-15T06:25:22;6.60;;;3.35;;
66264;SDS011;53055;44.648;21.148;2023-04-15T06:27:48;5.85;;;1.90;;
66264;SDS011;53055;44.648;21.148;2023-04-15T06:30:14;4.82;;;2.47;;
66264;SDS011;53055;44.648;21.148;2023-04-15T06:32:40;4.15;;;1.67;;
66264;SDS011;53055;44.648;21.148;2023-04-15T06:35:06;5.80;;;2.40;;
66264;SDS011;53055;44.648;21.148;2023-04-15T06:37:32;4.47;;;1.77;;
66264;SDS011;53055;44.648;21.148;2023-04-15T06:39:58;5.65;;;1.92;;
66264;SDS011;53055;44.648;21.148;2023-04-15T06:42:25;4.70;;;1.73;;
66264;SDS011;53055;44.648;21.148;2023-04-15T06:44:51;5.63;;;2.85;;
66264;SDS011;53055;44.648;21.148;2023-04-15T06:47:17;4.55;;;2.40;;
66264;SDS011;53055;44.648;21.148;2023-04-15T06:49:43;4.65;;;1.77;;
66264;SDS011;53055;44.648;21.148;2023-04-15T06:52:09;4.20;;;1.50;;
66264;SDS011;53055;44.648;21.148;2023-04-15T06:54:36;3.25;;;1.00;;
66264;SDS011;53055;44.648;21.148;2023-04-15T06:57:02;2.72;;;1.27;;
66264;SDS011;53055;44.648;21.148;2023-04-15T06:59:28;3.35;;;1.10;;
66264;SDS011;53055;44.648;21.148;2023-04-15T07:01:55;2.58;;;1.02;;
66264;SDS011;53055;44.648;21.148;2023-04-15T07:04:21;3.03;;;0.90;;
66264;SDS011;53055;44.648;21.148;2023-04-15T07:06:47;2.58;;;0.85;;
66264;SDS011;53055;44.648;21.148;2023-04-15T07:09:14;3.67;;;1.17;;
66264;SDS011;53055;44.648;21.148;2023-04-15T07:11:40;3.15;;;0.82;;
66264;SDS011;53055;44.648;21.148;2023-04-15T07:14:06;2.78;;;0.90;;
66264;SDS011;53055;44.648;21.148;2023-04-15T07:16:32;2.58;;;0.85;;
66264;SDS011;53055;44.648;21.148;2023-04-15T07:18:58;3.65;;;1.00;;
66264;SDS011;53055;44.648;21.148;2023-04-15T07:21:24;2.42;;;0.75;;
66264;SDS011;53055;44.648;21.148;2023-04-15T07:23:51;2.38;;;0.93;;
66264;SDS011;53055;44.648;21.148;2023-04-15T07:26:17;3.38;;;1.08;;
66264;SDS011;53055;44.648;21.148;2023-04-15T07:28:43;3.25;;;0.93;;
66264;SDS011;53055;44.648;21.148;2023-04-15T07:31:11;2.13;;;0.70;;
66264;SDS011;53055;44.648;21.148;2023-04-15T07:33:37;1.88;;;0.88;;
66264;SDS011;53055;44.648;21.148;2023-04-15T07:36:03;3.10;;;0.93;;
66264;SDS011;53055;44.648;21.148;2023-04-15T07:38:29;3.22;;;0.80;;
66264;SDS011;53055;44.648;21.148;2023-04-15T07:40:55;2.33;;;0.90;;
66264;SDS011;53055;44.648;21.148;2023-04-15T07:43:22;3.35;;;0.82;;
66264;SDS011;53055;44.648;21.148;2023-04-15T07:45:48;5.90;;;1.27;;
66264;SDS011;53055;44.648;21.148;2023-04-15T07:48:14;2.95;;;0.80;;
66264;SDS011;53055;44.648;21.148;2023-04-15T07:50:40;3.65;;;1.10;;
66264;SDS011;53055;44.648;21.148;2023-04-15T07:53:07;3.63;;;1.40;;
66264;SDS011;53055;44.648;21.148;2023-04-15T07:55:33;3.22;;;1.00;;
66264;SDS011;53055;44.648;21.148;2023-04-15T07:57:59;2.55;;;0.80;;
66264;SDS011;53055;44.648;21.148;2023-04-15T08:00:25;3.33;;;0.80;;
66264;SDS011;53055;44.648;21.148;2023-04-15T08:02:52;2.50;;;0.90;;
66264;SDS011;53055;44.648;21.148;2023-04-15T08:05:18;2.47;;;0.95;;
66264;SDS011;53055;44.648;21.148;2023-04-15T08:07:44;2.78;;;0.75;;
66264;SDS011;53055;44.648;21.148;2023-04-15T08:10:10;1.83;;;0.80;;
66264;SDS011;53055;44.648;21.148;2023-04-15T08:12:37;4.35;;;1.25;;
66264;SDS011;53055;44.648;21.148;2023-04-15T08:15:03;2.65;;;0.80;;
66264;SDS011;53055;44.648;21.148;2023-04-15T08:17:29;2.97;;;0.77;;
66264;SDS011;53055;44.648;21.148;2023-04-15T08:19:55;2.85;;;0.80;;
66264;SDS011;53055;44.648;21.148;2023-04-15T08:22:21;2.03;;;0.80;;
66264;SDS011;53055;44.648;21.148;2023-04-15T08:24:48;1.88;;;0.60;;
66264;SDS011;53055;44.648;21.148;2023-04-15T08:27:14;2.90;;;0.77;;
66264;SDS011;53055;44.648;21.148;2023-04-15T08:29:40;3.22;;;0.98;;
66264;SDS011;53055;44.648;21.148;2023-04-15T08:32:06;2.08;;;0.70;;
66264;SDS011;53055;44.648;21.148;2023-04-15T08:34:33;1.77;;;0.65;;
66264;SDS011;53055;44.648;21.148;2023-04-15T08:37:00;3.00;;;0.70;;
66264;SDS011;53055;44.648;21.148;2023-04-15T08:39:26;2.55;;;0.70;;
66264;SDS011;53055;44.648;21.148;2023-04-15T08:42:02;2.08;;;0.70;;
66264;SDS011;53055;44.648;21.148;2023-04-15T08:44:34;1.98;;;0.80;;
66264;SDS011;53055;44.648;21.148;2023-04-15T08:47:06;2.97;;;0.90;;
66264;SDS011;53055;44.648;21.148;2023-04-15T08:49:32;2.70;;;0.80;;
66264;SDS011;53055;44.648;21.148;2023-04-15T08:52:00;2.03;;;0.68;;
66264;SDS011;53055;44.648;21.148;2023-04-15T08:54:28;2.00;;;0.68;;
66264;SDS011;53055;44.648;21.148;2023-04-15T08:56:56;3.08;;;0.90;;
66264;SDS011;53055;44.648;21.148;2023-04-15T08:59:23;1.60;;;0.70;;
66264;SDS011;53055;44.648;21.148;2023-04-15T09:01:49;6.43;;;0.80;;
66264;SDS011;53055;44.648;21.148;2023-04-15T09:04:16;2.50;;;0.90;;
66264;SDS011;53055;44.648;21.148;2023-04-15T09:06:42;2.28;;;0.60;;
66264;SDS011;53055;44.648;21.148;2023-04-15T09:09:08;2.05;;;0.80;;
66264;SDS011;53055;44.648;21.148;2023-04-15T09:11:34;1.92;;;0.70;;
66264;SDS011;53055;44.648;21.148;2023-04-15T09:14:00;1.75;;;0.70;;
66264;SDS011;53055;44.648;21.148;2023-04-15T09:16:27;5.35;;;0.80;;
66264;SDS011;53055;44.648;21.148;2023-04-15T09:18:53;2.50;;;0.80;;
66264;SDS011;53055;44.648;21.148;2023-04-15T09:21:19;3.65;;;1.08;;
66264;SDS011;53055;44.648;21.148;2023-04-15T09:23:54;3.10;;;0.80;;
66264;SDS011;53055;44.648;21.148;2023-04-15T09:26:34;2.10;;;0.80;;
66264;SDS011;53055;44.648;21.148;2023-04-15T09:29:02;2.38;;;0.80;;
66264;SDS011;53055;44.648;21.148;2023-04-15T09:31:29;2.85;;;0.77;;
66264;SDS011;53055;44.648;21.148;2023-04-15T09:33:56;3.55;;;0.90;;
66264;SDS011;53055;44.648;21.148;2023-04-15T09:36:22;2.88;;;1.05;;
66264;SDS011;53055;44.648;21.148;2023-04-15T09:38:55;4.35;;;1.45;;
66264;SDS011;53055;44.648;21.148;2023-04-15T09:41:22;2.63;;;1.02;;
66264;SDS011;53055;44.648;21.148;2023-04-15T09:43:49;3.60;;;1.30;;
66264;SDS011;53055;44.648;21.148;2023-04-15T09:46:15;3.10;;;1.00;;
66264;SDS011;53055;44.648;21.148;2023-04-15T09:48:41;4.75;;;1.33;;
66264;SDS011;53055;44.648;21.148;2023-04-15T09:51:07;3.35;;;1.10;;
66264;SDS011;53055;44.648;21.148;2023-04-15T09:53:34;3.20;;;1.13;;
66264;SDS011;53055;44.648;21.148;2023-04-15T09:56:00;4.00;;;1.40;;
66264;SDS011;53055;44.648;21.148;2023-04-15T09:58:27;3.65;;;1.20;;
66264;SDS011;53055;44.648;21.148;2023-04-15T10:00:54;3.28;;;1.25;;
66264;SDS011;53055;44.648;21.148;2023-04-15T10:03:22;4.88;;;1.60;;
66264;SDS011;53055;44.648;21.148;2023-04-15T10:05:48;2.80;;;1.10;;
66264;SDS011;53055;44.648;21.148;2023-04-15T10:08:18;3.45;;;1.30;;
66264;SDS011;53055;44.648;21.148;2023-04-15T10:10:46;2.95;;;1.15;;
66264;SDS011;53055;44.648;21.148;2023-04-15T10:13:25;3.58;;;1.30;;
66264;SDS011;53055;44.648;21.148;2023-04-15T10:16:12;3.10;;;1.10;;
66264;SDS011;53055;44.648;21.148;2023-04-15T10:18:42;2.28;;;0.95;;
66264;SDS011;53055;44.648;21.148;2023-04-15T10:21:08;3.80;;;1.20;;
66264;SDS011;53055;44.648;21.148;2023-04-15T10:23:34;2.45;;;0.90;;
66264;SDS011;53055;44.648;21.148;2023-04-15T10:26:01;3.30;;;1.00;;
66264;SDS011;53055;44.648;21.148;2023-04-15T10:28:29;4.30;;;1.30;;
66264;SDS011;53055;44.648;21.148;2023-04-15T10:30:55;2.83;;;0.90;;
66264;SDS011;53055;44.648;21.148;2023-04-15T10:33:22;3.00;;;1.10;;
66264;SDS011;53055;44.648;21.148;2023-04-15T10:35:49;4.38;;;1.40;;
66264;SDS011;53055;44.648;21.148;2023-04-15T10:41:11;5.07;;;1.75;;
66264;SDS011;53055;44.648;21.148;2023-04-15T10:43:38;2.72;;;1.05;;
66264;SDS011;53055;44.648;21.148;2023-04-15T10:46:04;3.00;;;0.90;;
66264;SDS011;53055;44.648;21.148;2023-04-15T10:48:30;5.32;;;1.00;;
66264;SDS011;53055;44.648;21.148;2023-04-15T10:50:57;2.17;;;0.80;;
66264;SDS011;53055;44.648;21.148;2023-04-15T10:53:29;2.35;;;0.70;;
66264;SDS011;53055;44.648;21.148;2023-04-15T10:55:56;3.90;;;0.90;;
66264;SDS011;53055;44.648;21.148;2023-04-15T10:58:23;3.35;;;0.85;;
66264;SDS011;53055;44.648;21.148;2023-04-15T11:00:50;3.38;;;1.02;;
66264;SDS011;53055;44.648;21.148;2023-04-15T11:03:20;2.75;;;0.95;;
66264;SDS011;53055;44.648;21.148;2023-04-15T11:05:58;3.13;;;0.98;;
66264;SDS011;53055;44.648;21.148;2023-04-15T11:08:58;4.25;;;1.40;;
66264;SDS011;53055;44.648;21.148;2023-04-15T11:11:17;3.92;;;1.13;;
66264;SDS011;53055;44.648;21.148;2023-04-15T11:13:50;3.05;;;1.00;;
66264;SDS011;53055;44.648;21.148;2023-04-15T11:16:23;3.15;;;0.90;;
66264;SDS011;53055;44.648;21.148;2023-04-15T11:19:04;5.00;;;1.15;;
66264;SDS011;53055;44.648;21.148;2023-04-15T11:21:30;2.20;;;0.80;;
66264;SDS011;53055;44.648;21.148;2023-04-15T11:23:56;2.67;;;0.90;;
66264;SDS011;53055;44.648;21.148;2023-04-15T11:26:24;1.88;;;0.90;;
66264;SDS011;53055;44.648;21.148;2023-04-15T11:28:51;3.63;;;0.98;;
66264;SDS011;53055;44.648;21.148;2023-04-15T11:31:18;4.82;;;1.02;;
66264;SDS011;53055;44.648;21.148;2023-04-15T11:36:19;3.80;;;1.00;;
66264;SDS011;53055;44.648;21.148;2023-04-15T11:38:45;3.53;;;1.20;;
66264;SDS011;53055;44.648;21.148;2023-04-15T11:41:12;4.53;;;1.33;;
66264;SDS011;53055;44.648;21.148;2023-04-15T11:43:38;3.00;;;1.00;;
66264;SDS011;53055;44.648;21.148;2023-04-15T11:46:04;3.10;;;0.80;;
66264;SDS011;53055;44.648;21.148;2023-04-15T11:48:34;3.92;;;0.90;;
66264;SDS011;53055;44.648;21.148;2023-04-15T11:56:02;2.83;;;0.70;;
66264;SDS011;53055;44.648;21.148;2023-04-15T11:58:28;4.07;;;0.80;;
66264;SDS011;53055;44.648;21.148;2023-04-15T12:00:59;3.13;;;1.15;;
66264;SDS011;53055;44.648;21.148;2023-04-15T12:06:11;2.92;;;0.85;;
66264;SDS011;53055;44.648;21.148;2023-04-15T12:13:54;5.20;;;1.20;;
66264;SDS011;53055;44.648;21.148;2023-04-15T12:16:21;3.72;;;1.30;;
66264;SDS011;53055;44.648;21.148;2023-04-15T12:18:54;3.05;;;1.00;;
66264;SDS011;53055;44.648;21.148;2023-04-15T12:21:22;3.60;;;1.27;;
66264;SDS011;53055;44.648;21.148;2023-04-15T12:26:14;3.22;;;0.82;;
66264;SDS011;53055;44.648;21.148;2023-04-15T12:28:41;3.50;;;0.90;;
66264;SDS011;53055;44.648;21.148;2023-04-15T12:31:08;3.53;;;1.50;;
66264;SDS011;53055;44.648;21.148;2023-04-15T12:33:34;7.15;;;2.97;;
66264;SDS011;53055;44.648;21.148;2023-04-15T12:36:00;6.18;;;2.78;;
66264;SDS011;53055;44.648;21.148;2023-04-15T12:38:27;3.78;;;1.30;;
66264;SDS011;53055;44.648;21.148;2023-04-15T12:40:53;4.78;;;1.42;;
66264;SDS011;53055;44.648;21.148;2023-04-15T12:43:19;6.20;;;1.60;;
66264;SDS011;53055;44.648;21.148;2023-04-15T12:45:45;6.32;;;1.88;;
66264;SDS011;53055;44.648;21.148;2023-04-15T12:48:12;3.53;;;1.30;;
66264;SDS011;53055;44.648;21.148;2023-04-15T12:50:38;3.28;;;1.20;;
66264;SDS011;53055;44.648;21.148;2023-04-15T12:53:04;3.03;;;1.02;;
66264;SDS011;53055;44.648;21.148;2023-04-15T12:55:31;3.70;;;1.17;;
66264;SDS011;53055;44.648;21.148;2023-04-15T12:57:57;3.40;;;0.98;;
66264;SDS011;53055;44.648;21.148;2023-04-15T13:03:15;1.92;;;0.82;;
66264;SDS011;53055;44.648;21.148;2023-04-15T13:05:41;2.70;;;1.05;;
66264;SDS011;53055;44.648;21.148;2023-04-15T13:08:07;1.95;;;0.63;;
66264;SDS011;53055;44.648;21.148;2023-04-15T13:10:36;2.80;;;0.75;;
66264;SDS011;53055;44.648;21.148;2023-04-15T13:13:03;3.58;;;0.90;;
66264;SDS011;53055;44.648;21.148;2023-04-15T13:15:29;2.95;;;0.90;;
66264;SDS011;53055;44.648;21.148;2023-04-15T13:17:55;3.90;;;0.70;;
66264;SDS011;53055;44.648;21.148;2023-04-15T13:20:21;2.97;;;0.82;;
66264;SDS011;53055;44.648;21.148;2023-04-15T13:22:47;2.53;;;0.85;;
66264;SDS011;53055;44.648;21.148;2023-04-15T13:25:13;3.22;;;0.90;;
66264;SDS011;53055;44.648;21.148;2023-04-15T13:27:39;3.20;;;0.90;;
66264;SDS011;53055;44.648;21.148;2023-04-15T13:30:06;2.10;;;0.70;;
66264;SDS011;53055;44.648;21.148;2023-04-15T13:32:32;2.92;;;0.90;;
66264;SDS011;53055;44.648;21.148;2023-04-15T13:34:58;3.15;;;1.13;;
66264;SDS011;53055;44.648;21.148;2023-04-15T13:37:25;3.38;;;1.15;;
66264;SDS011;53055;44.648;21.148;2023-04-15T13:39:52;3.30;;;1.27;;
66264;SDS011;53055;44.648;21.148;2023-04-15T13:42:18;2.95;;;0.93;;
66264;SDS011;53055;44.648;21.148;2023-04-15T13:44:44;3.28;;;1.00;;
66264;SDS011;53055;44.648;21.148;2023-04-15T13:47:10;3.00;;;0.93;;
66264;SDS011;53055;44.648;21.148;2023-04-15T13:49:37;5.80;;;1.20;;
66264;SDS011;53055;44.648;21.148;2023-04-15T13:52:03;3.25;;;1.00;;
66264;SDS011;53055;44.648;21.148;2023-04-15T13:54:29;2.80;;;1.30;;
66264;SDS011;53055;44.648;21.148;2023-04-15T13:56:55;3.25;;;1.23;;
66264;SDS011;53055;44.648;21.148;2023-04-15T13:59:22;4.20;;;1.20;;
66264;SDS011;53055;44.648;21.148;2023-04-15T14:01:48;4.00;;;1.58;;
66264;SDS011;53055;44.648;21.148;2023-04-15T14:04:14;3.47;;;1.10;;
66264;SDS011;53055;44.648;21.148;2023-04-15T14:06:40;3.03;;;0.82;;
66264;SDS011;53055;44.648;21.148;2023-04-15T14:09:06;3.45;;;0.90;;
66264;SDS011;53055;44.648;21.148;2023-04-15T14:11:32;4.72;;;1.70;;
66264;SDS011;53055;44.648;21.148;2023-04-15T14:14:00;2.67;;;0.80;;
66264;SDS011;53055;44.648;21.148;2023-04-15T14:16:26;2.25;;;0.80;;
66264;SDS011;53055;44.648;21.148;2023-04-15T14:18:52;3.05;;;1.00;;
66264;SDS011;53055;44.648;21.148;2023-04-15T14:21:18;3.72;;;0.98;;
66264;SDS011;53055;44.648;21.148;2023-04-15T14:23:45;3.45;;;0.90;;
66264;SDS011;53055;44.648;21.148;2023-04-15T14:26:11;3.53;;;1.00;;
66264;SDS011;53055;44.648;21.148;2023-04-15T14:28:37;4.35;;;1.30;;
66264;SDS011;53055;44.648;21.148;2023-04-15T14:31:03;3.30;;;1.00;;
66264;SDS011;53055;44.648;21.148;2023-04-15T14:33:30;2.60;;;0.80;;
66264;SDS011;53055;44.648;21.148;2023-04-15T14:35:57;3.85;;;0.93;;
66264;SDS011;53055;44.648;21.148;2023-04-15T14:38:23;2.45;;;1.00;;
66264;SDS011;53055;44.648;21.148;2023-04-15T14:40:49;3.75;;;1.20;;
66264;SDS011;53055;44.648;21.148;2023-04-15T14:43:15;2.67;;;0.82;;
66264;SDS011;53055;44.648;21.148;2023-04-15T14:45:41;3.85;;;1.15;;
66264;SDS011;53055;44.648;21.148;2023-04-15T14:48:08;2.95;;;0.93;;
66264;SDS011;53055;44.648;21.148;2023-04-15T14:50:37;3.63;;;1.00;;
66264;SDS011;53055;44.648;21.148;2023-04-15T14:53:03;2.85;;;0.75;;